KCNW/CNW METAR and TAF weather

Enter ICAO airport designator
Station Type Date Time Source
KCNW METAR 2020/08/14 01:55 UTC NOAA

KCNW 140155Z 14006KT 10SM SKC 31/17 A2987


Station Type Date Time Source
KCNW Decoded METAR 2020/08/14 01:55 UTC NOAA

Station name not available
Aug 13, 2020 - 09:55 PM EDT / 2020.08.14 0155 UTC
Wind: from the SE (140 degrees) at 7 MPH (6 KT):0
Visibility: 10 mile(s):0
Sky conditions: clear
Temperature: 87 F (31 C)
Dew Point: 62 F (17 C)
Relative Humidity: 43%
Pressure (altimeter): 29.87 in. Hg (1011 hPa)
ob: KCNW 140155Z 14006KT 10SM SKC 31/17 A2987
cycle: 2

Station Type Date Time Source
KCNW TAF UTC NOAA

Error!

Example: see airport list